Terminal Aerodrome Forecast
Issued by NWS Green Bay, WI

Home | Current Version | Previous Version | Text Only | Print | Product List | Glossary Off
Versions: 1 2 3 4 5 6 7 8 9 10 11 12 13 14 15 16 17 18 19 20 21 22 23 24 25 26 27 28 29 30 31 32 33 34 35 36 37 38 39 40

000
FTUS43 KGRB 021100
TAFGRB
TAF
KGRB 021126Z 0212/0312 28008KT P6SM SKC
     FM022200 20004KT P6SM BKN200
     FM030400 17004KT P6SM BKN100
     FM031000 15008KT P6SM -SN BKN035 OVC070
      TEMPO 0311/0312 4SM -SN OVC020=

USA.gov is the U.S. government's official web portal to all federal, state and local government web resources and services.